Terminal Aerodrome Forecast
Issued by NWS

Home | Current Version | Previous Version | Graphics & Text | Print | Product List | Glossary On
Versions: 1 2 3 4 5 6 7 8 9 10 11 12 13 14 15 16 17 18 19 20 21 22 23 24 25 26 27 28 29 30 31 32 33 34 35
000
FTUS43 KLOT 140600 AAA
TAFDPA
TAF AMD
KDPA 140658Z 1407/1506 19012G20KT P6SM VCSH SCT022 BKN050 OVC100
      TEMPO 1407/1408 -RA BKN022
     FM140830 25016G24KT 6SM -SHRA BKN015
     FM140930 35020G30KT P6SM VCSH SCT006 OVC009
     FM141800 35019G28KT P6SM OVC015
     FM142100 36015G25KT 3SM -SN BR SCT012 OVC020
     FM150400 36012KT P6SM OVC015=

USA.gov is the U.S. government's official web portal to all federal, state and local government web resources and services.